createdAt,value
2018-03-02T00:01:28.754Z,18.00
2018-03-02T00:03:59.668Z,15.97
2018-03-02T00:06:30.645Z,19.10
2018-03-02T00:09:02.189Z,18.60
2018-03-02T00:11:34.044Z,17.33
2018-03-02T00:14:04.679Z,17.63
2018-03-02T00:16:35.414Z,21.47
2018-03-02T00:19:06.516Z,17.90
2018-03-02T00:21:37.622Z,19.00
2018-03-02T00:24:08.609Z,18.80
2018-03-02T00:26:40.004Z,19.13
2018-03-02T00:29:11.258Z,18.03
2018-03-02T00:31:42.329Z,18.50
2018-03-02T00:34:13.380Z,16.27
2018-03-02T00:36:44.408Z,18.77
2018-03-02T00:39:15.663Z,18.53
2018-03-02T00:41:46.599Z,19.63
2018-03-02T00:44:18.061Z,17.80
2018-03-02T00:46:48.942Z,19.83
2018-03-02T00:49:20.095Z,19.33
2018-03-02T00:51:51.235Z,19.93
2018-03-02T00:54:22.341Z,18.47
2018-03-02T00:56:53.828Z,18.17
2018-03-02T00:59:26.357Z,19.00
2018-03-02T01:01:57.571Z,18.03
2018-03-02T01:04:28.944Z,19.23
2018-03-02T01:07:00.237Z,20.70
2018-03-02T01:09:31.791Z,19.37
2018-03-02T01:12:03.312Z,19.20
2018-03-02T01:14:35.308Z,19.20
2018-03-02T01:17:07.168Z,19.93
2018-03-02T01:19:39.054Z,20.33
2018-03-02T01:22:09.803Z,17.20
2018-03-02T01:24:40.935Z,20.90
2018-03-02T01:27:12.679Z,20.87
2018-03-02T01:29:43.559Z,19.30
2018-03-02T01:32:14.478Z,17.87
2018-03-02T01:34:45.777Z,19.33
2018-03-02T01:37:17.108Z,19.10
2018-03-02T01:39:48.198Z,20.77
2018-03-02T01:42:19.373Z,20.57
2018-03-02T01:44:50.188Z,16.47
2018-03-02T01:47:21.459Z,13.93
2018-03-02T01:49:52.162Z,20.57
2018-03-02T01:52:23.280Z,18.40
2018-03-02T01:54:54.204Z,19.23
2018-03-02T01:57:24.859Z,18.47
2018-03-02T01:59:55.861Z,20.43
2018-03-02T02:02:26.604Z,19.03
2018-03-02T02:04:57.287Z,17.80
2018-03-02T02:07:28.133Z,17.93
2018-03-02T02:09:59.162Z,17.17
2018-03-02T02:12:29.322Z,21.30
2018-03-02T02:15:00.106Z,15.90
2018-03-02T02:17:31.278Z,19.67
2018-03-02T02:20:02.325Z,16.03
2018-03-02T02:22:32.757Z,19.90
2018-03-02T02:25:03.301Z,15.90
2018-03-02T02:27:33.181Z,18.80
2018-03-02T02:30:04.518Z,21.03
2018-03-02T02:32:34.903Z,18.77
2018-03-02T02:35:05.555Z,19.57
2018-03-02T02:37:37.630Z,20.80
2018-03-02T02:40:10.304Z,19.43
2018-03-02T02:42:40.984Z,19.40
2018-03-02T02:45:15.283Z,18.50
2018-03-02T02:47:50.171Z,20.33
2018-03-02T02:50:21.158Z,19.47
2018-03-02T02:52:51.480Z,19.17
2018-03-02T02:55:22.261Z,18.60
2018-03-02T02:57:52.443Z,20.47
2018-03-02T03:00:23.321Z,19.33
2018-03-02T03:02:53.654Z,19.83
2018-03-02T03:05:23.816Z,19.70
2018-03-02T03:07:54.129Z,19.67
2018-03-02T03:10:24.421Z,19.57
2018-03-02T03:12:54.489Z,18.40
2018-03-02T03:15:24.721Z,17.67
2018-03-02T03:17:55.057Z,19.17
2018-03-02T03:20:25.770Z,18.87
2018-03-02T03:22:55.977Z,20.13
2018-03-02T03:25:26.232Z,15.40
2018-03-02T03:27:58.274Z,20.47
2018-03-02T03:30:28.984Z,20.00
2018-03-02T03:32:59.342Z,16.10
2018-03-02T03:35:29.361Z,20.17
2018-03-02T03:37:59.122Z,20.93
2018-03-02T03:40:29.492Z,19.87
2018-03-02T03:42:59.891Z,21.13
2018-03-02T03:45:30.333Z,21.97
2018-03-02T03:48:00.492Z,18.30
2018-03-02T03:50:30.838Z,22.07
2018-03-02T03:53:01.835Z,17.73
2018-03-02T03:55:32.573Z,18.60
2018-03-02T03:58:02.901Z,21.00
2018-03-02T04:00:33.147Z,21.37
2018-03-02T04:03:03.100Z,17.93
2018-03-02T04:05:33.365Z,22.27
2018-03-02T04:08:04.586Z,21.33
2018-03-02T04:10:35.037Z,20.83
2018-03-02T04:13:05.452Z,20.87
2018-03-02T04:15:35.439Z,20.23
2018-03-02T04:18:05.574Z,22.20
2018-03-02T04:20:35.810Z,21.10
2018-03-02T04:23:06.049Z,17.73
2018-03-02T04:25:36.292Z,22.60
2018-03-02T04:28:06.971Z,21.10
2018-03-02T04:30:37.654Z,21.27
2018-03-02T04:33:07.792Z,20.53
2018-03-02T04:35:37.921Z,20.03
2018-03-02T04:38:08.490Z,19.40
2018-03-02T04:40:38.613Z,19.23
2018-03-02T04:43:09.087Z,21.50
2018-03-02T04:45:39.310Z,16.53
2018-03-02T04:48:09.414Z,21.20
2018-03-02T04:50:39.596Z,19.77
2018-03-02T04:53:09.892Z,19.20
2018-03-02T04:55:40.141Z,18.93
2018-03-02T04:58:09.987Z,20.90
2018-03-02T05:00:40.240Z,17.47
2018-03-02T05:03:10.444Z,17.60
2018-03-02T05:05:40.731Z,19.73
2018-03-02T05:08:11.110Z,14.23
2018-03-02T05:10:41.433Z,21.10
2018-03-02T05:13:12.029Z,18.67
2018-03-02T05:15:42.256Z,15.83
2018-03-02T05:18:12.618Z,18.90
2018-03-02T05:20:42.932Z,17.07
2018-03-02T05:23:13.309Z,19.67
2018-03-02T05:25:43.848Z,15.40
2018-03-02T05:28:14.346Z,19.53
2018-03-02T05:30:44.982Z,18.17
2018-03-02T05:33:15.533Z,21.43
2018-03-02T05:35:46.218Z,19.30
2018-03-02T05:38:16.726Z,17.13
2018-03-02T05:40:47.300Z,20.93
2018-03-02T05:43:17.588Z,20.53
2018-03-02T05:45:48.202Z,21.30
2018-03-02T05:48:19.307Z,17.53
2018-03-02T05:50:50.533Z,21.87
2018-03-02T05:53:21.768Z,16.97
2018-03-02T05:55:54.849Z,19.33
2018-03-02T05:58:26.910Z,19.73
2018-03-02T06:00:58.015Z,17.43
2018-03-02T06:03:29.179Z,20.50
2018-03-02T06:06:00.487Z,20.07
2018-03-02T06:08:31.702Z,18.13
2018-03-02T06:11:03.604Z,20.27
2018-03-02T06:13:35.550Z,21.67
2018-03-02T06:16:06.930Z,21.97
2018-03-02T06:18:37.896Z,22.03
2018-03-02T06:21:09.295Z,19.77
2018-03-02T06:23:40.761Z,21.17
2018-03-02T06:26:12.301Z,20.47
2018-03-02T06:28:43.602Z,16.33
2018-03-02T06:31:14.836Z,21.33
2018-03-02T06:33:46.340Z,21.00
2018-03-02T06:36:17.415Z,22.77
2018-03-02T06:38:48.607Z,18.67
2018-03-02T06:41:20.235Z,18.07
2018-03-02T06:43:52.796Z,23.43
2018-03-02T06:46:27.920Z,19.43
2018-03-02T06:48:58.847Z,19.77
2018-03-02T06:51:30.555Z,20.73
2018-03-02T06:54:04.384Z,20.37
2018-03-02T06:56:37.259Z,22.73
2018-03-02T06:59:08.794Z,21.83
2018-03-02T07:01:39.845Z,21.90
2018-03-02T07:04:11.458Z,20.67
2018-03-02T07:06:43.013Z,19.03
2018-03-02T07:09:14.500Z,22.13
2018-03-02T07:11:45.726Z,19.47
2018-03-02T07:14:23.804Z,19.93
2018-03-02T07:16:55.106Z,17.10
2018-03-02T07:19:26.289Z,21.53
2018-03-02T07:21:57.763Z,21.87
2018-03-02T07:24:28.650Z,23.17
2018-03-02T07:27:04.199Z,24.23
2018-03-02T07:29:35.417Z,23.03
2018-03-02T07:32:07.201Z,22.23
2018-03-02T07:34:38.762Z,18.40
2018-03-02T07:37:09.900Z,21.20
2018-03-02T07:39:41.116Z,18.03
2018-03-02T07:42:12.269Z,19.50
2018-03-02T07:44:46.889Z,22.07
2018-03-02T07:47:18.092Z,20.00
2018-03-02T07:49:51.426Z,19.87
2018-03-02T07:52:22.665Z,21.23
2018-03-02T07:54:54.067Z,23.63
2018-03-02T07:57:25.374Z,22.30
2018-03-02T07:59:56.716Z,21.87
2018-03-02T08:02:27.938Z,19.50
2018-03-02T08:04:59.114Z,21.13
2018-03-02T08:07:30.479Z,23.53
2018-03-02T08:10:02.663Z,20.53
2018-03-02T08:12:34.001Z,22.47
2018-03-02T08:15:06.249Z,23.13
2018-03-02T08:17:37.582Z,22.17
2018-03-02T08:20:08.625Z,22.23
2018-03-02T08:22:40.040Z,20.53
2018-03-02T08:25:30.232Z,18.43
2018-03-02T08:28:01.588Z,18.53
2018-03-02T08:30:32.807Z,22.47
2018-03-02T08:33:03.854Z,22.63
2018-03-02T08:35:35.441Z,21.90
2018-03-02T08:40:44.972Z,23.97
2018-03-02T08:43:16.267Z,22.07
2018-03-02T08:45:51.765Z,22.07
2018-03-02T08:48:37.156Z,21.50
2018-03-02T08:51:22.561Z,22.73
2018-03-02T08:53:53.794Z,22.47
2018-03-02T08:56:24.890Z,24.43
2018-03-02T08:58:56.148Z,25.63
2018-03-02T09:01:27.461Z,25.23
2018-03-02T09:03:58.458Z,22.80
2018-03-02T09:06:29.476Z,22.33
2018-03-02T09:09:01.612Z,24.40
2018-03-02T09:11:33.206Z,22.30
2018-03-02T09:14:04.890Z,24.67
2018-03-02T09:16:38.065Z,23.70
2018-03-02T09:19:09.335Z,22.80
2018-03-02T09:21:42.615Z,23.70
2018-03-02T09:24:13.913Z,24.43
2018-03-02T09:26:45.090Z,23.40
2018-03-02T09:29:22.965Z,26.27
2018-03-02T09:31:54.438Z,23.83
2018-03-02T09:34:26.406Z,22.27
2018-03-02T09:36:58.083Z,25.20
2018-03-02T09:39:30.721Z,24.40
2018-03-02T09:42:03.064Z,24.93
2018-03-02T09:44:34.626Z,23.27
2018-03-02T09:47:05.925Z,26.17
2018-03-02T09:49:36.985Z,22.73
2018-03-02T09:52:08.411Z,24.27
2018-03-02T09:54:39.370Z,24.70
2018-03-02T09:57:10.936Z,24.67
2018-03-02T09:59:42.610Z,26.73
2018-03-02T10:02:13.731Z,24.97
2018-03-02T10:04:45.239Z,25.43
2018-03-02T10:07:16.288Z,24.60
2018-03-02T10:09:47.217Z,23.93
2018-03-02T10:12:19.259Z,24.70
2018-03-02T10:14:53.639Z,25.63
2018-03-02T10:17:24.890Z,27.20
2018-03-02T10:19:55.961Z,27.67
2018-03-02T10:22:27.739Z,26.80
2018-03-02T10:25:04.031Z,26.93
2018-03-02T10:27:35.076Z,28.53
2018-03-02T10:30:06.552Z,29.60
2018-03-02T10:32:37.601Z,27.30
2018-03-02T10:35:08.850Z,26.80
2018-03-02T10:37:39.784Z,27.03
2018-03-02T10:40:10.956Z,27.93
2018-03-02T10:42:49.559Z,29.27
2018-03-02T10:45:21.373Z,28.00
2018-03-02T10:47:51.938Z,27.33
2018-03-02T10:50:23.092Z,26.57
2018-03-02T10:52:54.596Z,27.53
2018-03-02T10:55:26.062Z,28.90
2018-03-02T10:57:57.268Z,29.87
2018-03-02T11:00:32.361Z,28.23
2018-03-02T11:03:03.626Z,27.43
2018-03-02T11:05:42.899Z,27.33
2018-03-02T11:08:16.122Z,26.07
2018-03-02T11:10:47.658Z,27.57
2018-03-02T11:13:19.096Z,27.90
2018-03-02T11:15:52.445Z,28.70
2018-03-02T11:18:23.303Z,28.53
2018-03-02T11:20:54.185Z,28.80
2018-03-02T11:23:25.492Z,27.47
2018-03-02T11:25:56.578Z,28.57
2018-03-02T11:28:27.309Z,26.67
2018-03-02T11:30:58.565Z,27.70
2018-03-02T11:33:29.790Z,27.57
2018-03-02T11:36:01.072Z,28.17
2018-03-02T11:38:34.031Z,29.17
2018-03-02T11:41:08.637Z,29.17
2018-03-02T11:43:41.359Z,27.90
2018-03-02T11:46:14.858Z,27.50
2018-03-02T11:48:50.071Z,26.97
2018-03-02T11:51:21.578Z,28.17
2018-03-02T11:53:54.269Z,26.80
2018-03-02T11:56:25.810Z,26.93
2018-03-02T11:59:03.500Z,28.47
2018-03-02T12:01:35.411Z,28.03
2018-03-02T12:07:08.766Z,27.23
2018-03-02T12:09:40.050Z,28.37
2018-03-02T12:12:11.044Z,28.60
2018-03-02T12:14:42.967Z,27.73
2018-03-02T12:17:14.009Z,27.83
2018-03-02T12:19:47.161Z,29.80
2018-03-02T12:22:34.246Z,27.33
2018-03-02T12:25:10.249Z,29.47
2018-03-02T12:27:42.076Z,29.37
2018-03-02T12:30:16.769Z,28.50
2018-03-02T12:32:47.912Z,28.60
2018-03-02T12:35:19.693Z,29.67
2018-03-02T12:37:50.778Z,28.30
2018-03-02T12:40:22.129Z,28.30
2018-03-02T12:42:53.268Z,29.43
2018-03-02T12:45:24.891Z,28.97
2018-03-02T12:47:56.987Z,28.10
2018-03-02T12:50:27.888Z,29.63
2018-03-02T12:52:58.953Z,29.67
2018-03-02T12:55:30.218Z,29.17
2018-03-02T12:58:00.976Z,29.70
2018-03-02T13:00:32.053Z,30.20
2018-03-02T13:03:03.441Z,28.30
2018-03-02T13:05:34.713Z,29.80
2018-03-02T13:08:06.044Z,28.07
2018-03-02T13:10:36.905Z,30.33
2018-03-02T13:13:26.129Z,28.70
2018-03-02T13:16:09.862Z,29.67
2018-03-02T13:18:44.668Z,30.63
2018-03-02T13:21:15.973Z,29.57
2018-03-02T13:23:47.004Z,28.97
2018-03-02T13:26:26.720Z,29.27
2018-03-02T13:29:01.824Z,29.37
2018-03-02T13:31:32.877Z,29.57
2018-03-02T13:34:14.661Z,29.80
2018-03-02T13:36:45.665Z,30.00
2018-03-02T13:39:28.781Z,27.87
2018-03-02T13:42:06.469Z,29.83
2018-03-02T13:44:38.720Z,27.97
2018-03-02T13:47:09.789Z,28.07
2018-03-02T13:50:31.864Z,27.10
2018-03-02T13:53:07.948Z,30.40
2018-03-02T13:55:39.721Z,32.20
2018-03-02T13:58:10.724Z,27.40
2018-03-02T14:00:41.946Z,29.77
2018-03-02T14:05:25.895Z,31.43
2018-03-02T14:08:59.090Z,29.60
2018-03-02T14:11:29.750Z,27.87
2018-03-02T14:14:00.645Z,31.33
2018-03-02T14:16:31.743Z,28.13
2018-03-02T14:19:03.422Z,28.90
2018-03-02T14:21:34.503Z,30.07
2018-03-02T14:24:06.296Z,30.80
2018-03-02T14:28:07.308Z,40.27
2018-03-02T14:30:38.074Z,31.27
2018-03-02T14:33:09.048Z,32.33
2018-03-02T14:35:39.718Z,31.50
2018-03-02T14:38:11.725Z,29.93
2018-03-02T14:40:47.201Z,30.43
2018-03-02T14:43:18.301Z,28.37
2018-03-02T14:45:49.354Z,31.77
2018-03-02T14:48:20.424Z,30.37
2018-03-02T14:50:51.024Z,31.37
2018-03-02T14:53:21.782Z,30.13
2018-03-02T14:55:52.513Z,29.70
2018-03-02T14:58:23.187Z,29.93
2018-03-02T15:00:53.945Z,31.60
2018-03-02T15:03:24.548Z,28.13
2018-03-02T15:05:55.279Z,32.20
2018-03-02T15:08:27.010Z,30.00
2018-03-02T15:10:57.676Z,29.00
2018-03-02T15:13:28.448Z,27.83
2018-03-02T15:15:59.130Z,28.47
2018-03-02T15:18:30.090Z,29.63
2018-03-02T15:21:01.118Z,29.47
2018-03-02T15:23:33.449Z,28.83
2018-03-02T15:26:07.283Z,27.73
2018-03-02T15:28:37.868Z,30.73
2018-03-02T15:31:08.547Z,30.40
2018-03-02T15:33:39.058Z,30.97
2018-03-02T15:36:10.981Z,28.00
2018-03-02T15:38:46.724Z,29.67
2018-03-02T15:41:17.548Z,29.27
2018-03-02T15:43:55.463Z,29.20
2018-03-02T15:46:26.328Z,29.10
2018-03-02T15:48:56.858Z,28.40
2018-03-02T15:51:27.535Z,30.40
2018-03-02T15:53:58.786Z,30.50
2018-03-02T15:56:33.757Z,29.57
2018-03-02T15:59:05.250Z,32.27
2018-03-02T16:01:36.350Z,30.17
2018-03-02T16:04:07.589Z,31.97
2018-03-02T16:06:38.648Z,33.97
2018-03-02T16:09:09.555Z,29.30
2018-03-02T16:11:53.144Z,28.73
2018-03-02T16:14:24.143Z,33.00
2018-03-02T16:16:55.909Z,32.17
2018-03-02T16:19:26.525Z,30.10
2018-03-02T16:21:57.332Z,37.03
2018-03-02T16:24:28.213Z,29.47
2018-03-02T16:27:03.919Z,28.83
2018-03-02T16:29:34.746Z,28.73
2018-03-02T16:32:05.946Z,28.20
2018-03-02T16:34:36.553Z,28.33
2018-03-02T16:37:27.438Z,26.60
2018-03-02T16:39:58.873Z,26.97
2018-03-02T16:42:31.251Z,28.10
2018-03-02T16:45:03.160Z,27.13
2018-03-02T16:47:35.285Z,27.27
2018-03-02T16:50:06.223Z,27.63
2018-03-02T16:52:38.312Z,27.97
2018-03-02T16:55:09.921Z,28.03
2018-03-02T16:57:56.060Z,28.10
2018-03-02T17:00:27.435Z,29.40
2018-03-02T17:02:58.482Z,29.40
2018-03-02T17:05:37.428Z,29.57
2018-03-02T17:08:07.945Z,30.83
2018-03-02T17:10:38.773Z,30.83
2018-03-02T17:13:09.984Z,29.10
2018-03-02T17:15:40.905Z,27.97
2018-03-02T17:18:14.985Z,29.00
2018-03-02T17:20:45.762Z,30.97
2018-03-02T17:23:17.050Z,32.40
2018-03-02T17:25:48.617Z,29.60
2018-03-02T17:28:24.838Z,27.87
2018-03-02T17:30:55.988Z,28.97
2018-03-02T17:33:35.129Z,27.40
2018-03-02T17:36:05.930Z,29.47
2018-03-02T17:38:37.512Z,30.03
2018-03-02T17:41:08.568Z,29.33
2018-03-02T17:43:40.224Z,29.87
2018-03-02T17:46:10.797Z,29.83
2018-03-02T17:48:48.605Z,30.53
2018-03-02T17:51:21.107Z,28.97
2018-03-02T17:53:52.710Z,30.63
2018-03-02T17:56:24.144Z,29.13
2018-03-02T17:58:57.285Z,29.30
2018-03-02T18:01:27.888Z,29.87
2018-03-02T18:03:58.882Z,28.73
2018-03-02T18:06:29.644Z,29.13
2018-03-02T18:09:01.842Z,29.43
2018-03-02T18:11:59.167Z,29.67
2018-03-02T18:14:38.228Z,29.40
2018-03-02T18:23:44.651Z,31.70
2018-03-02T18:26:20.348Z,30.00
2018-03-02T18:28:51.268Z,32.23
2018-03-02T18:31:21.897Z,33.13
2018-03-02T18:33:52.466Z,30.57
2018-03-02T18:36:23.537Z,31.67
2018-03-02T18:38:54.538Z,29.60
2018-03-02T18:41:26.178Z,32.77
2018-03-02T18:43:58.130Z,32.60
2018-03-02T18:46:29.355Z,32.10
2018-03-02T18:49:06.778Z,33.57
2018-03-02T18:51:40.989Z,31.30
2018-03-02T18:54:18.373Z,31.87
2018-03-02T18:57:04.589Z,33.80
2018-03-02T18:59:38.157Z,31.30
2018-03-02T19:02:20.417Z,33.13
2018-03-02T19:05:27.125Z,31.63
2018-03-02T19:08:05.296Z,32.63
2018-03-02T19:10:36.779Z,35.97
2018-03-02T19:13:08.018Z,36.73
2018-03-02T19:15:41.270Z,34.70
2018-03-02T19:18:24.419Z,33.13
2018-03-02T19:20:56.133Z,33.43
2018-03-02T19:23:27.365Z,37.43
2018-03-02T19:25:58.185Z,38.40
2018-03-02T19:28:32.412Z,34.23
2018-03-02T19:31:03.414Z,37.07
2018-03-02T19:33:35.411Z,37.90
2018-03-02T19:37:05.379Z,38.63
2018-03-02T19:42:56.028Z,38.40
2018-03-02T19:49:35.655Z,35.93
2018-03-02T19:55:11.089Z,41.17
2018-03-02T19:57:57.101Z,40.97
2018-03-02T20:00:28.022Z,42.80
2018-03-02T20:03:10.297Z,43.07
2018-03-02T20:18:51.487Z,45.77
2018-03-02T20:21:46.221Z,46.63
2018-03-02T20:24:19.086Z,47.53
2018-03-02T20:26:51.762Z,46.10
2018-03-02T20:39:41.050Z,46.53
2018-03-02T20:42:15.570Z,46.90
2018-03-02T20:45:17.065Z,48.43
2018-03-02T20:58:14.505Z,47.53
2018-03-02T21:00:45.381Z,48.40
2018-03-02T21:03:15.942Z,49.87
2018-03-02T21:05:46.642Z,47.57
2018-03-02T21:08:17.399Z,48.83
2018-03-02T21:10:49.191Z,47.97
2018-03-02T21:13:19.863Z,48.43
2018-03-02T21:15:51.772Z,47.40
2018-03-02T21:18:23.405Z,50.80
2018-03-02T21:20:54.157Z,48.60
2018-03-02T21:23:25.253Z,47.67
2018-03-02T21:25:57.899Z,48.43
2018-03-02T21:28:32.819Z,48.47
2018-03-02T21:31:03.488Z,47.93
2018-03-02T21:33:34.407Z,51.07
2018-03-02T21:36:05.054Z,48.87
2018-03-02T21:38:35.815Z,48.97
2018-03-02T21:41:08.053Z,50.67
2018-03-02T21:43:43.747Z,51.00
2018-03-02T21:52:54.360Z,47.20
2018-03-02T21:56:11.740Z,51.33
2018-03-02T21:58:44.112Z,48.77
2018-03-02T22:01:15.421Z,48.97
2018-03-02T22:03:45.876Z,47.13
2018-03-02T22:06:16.471Z,49.93
2018-03-02T22:08:47.063Z,48.20
2018-03-02T22:11:25.418Z,49.53
2018-03-02T22:14:04.382Z,51.53
2018-03-02T22:16:42.517Z,51.77
2018-03-02T22:19:15.852Z,48.27
2018-03-02T22:22:01.202Z,50.80
2018-03-02T22:24:34.024Z,50.60
2018-03-02T22:27:06.463Z,49.60
2018-03-02T22:29:37.177Z,48.37
2018-03-02T22:32:24.918Z,46.77
2018-03-02T22:35:06.600Z,44.53
2018-03-02T22:37:44.078Z,48.53
2018-03-02T22:40:14.887Z,46.53
2018-03-02T22:42:45.806Z,47.57
2018-03-02T22:45:17.063Z,49.03
2018-03-02T22:47:48.040Z,48.30
2018-03-02T22:50:19.142Z,47.17
2018-03-02T22:52:49.996Z,47.27
2018-03-02T22:55:21.097Z,47.90
2018-03-02T22:57:51.881Z,45.10
2018-03-02T23:00:23.814Z,45.77
2018-03-02T23:02:54.645Z,48.40
2018-03-02T23:05:24.981Z,49.03
2018-03-02T23:12:02.853Z,46.57
2018-03-02T23:14:46.240Z,47.63
2018-03-02T23:17:18.605Z,44.90
2018-03-02T23:19:50.236Z,46.57
2018-03-02T23:22:21.583Z,46.03
2018-03-02T23:24:52.395Z,48.57
2018-03-02T23:27:24.033Z,51.20
2018-03-02T23:29:55.070Z,51.40
2018-03-02T23:32:26.254Z,50.97
2018-03-02T23:34:57.277Z,52.87
2018-03-02T23:37:28.286Z,51.30
2018-03-02T23:39:59.724Z,53.03
2018-03-02T23:42:30.635Z,54.43
2018-03-02T23:45:01.683Z,51.83
2018-03-02T23:47:33.236Z,52.03
2018-03-02T23:50:18.516Z,52.23
2018-03-02T23:52:50.866Z,54.67
2018-03-02T23:55:22.350Z,54.23
2018-03-02T23:57:52.989Z,50.57
